Time;durP1;ratioP1;P1;durP2;ratioP2;P2;SDS_P1;SDS_P2;PMS_P1;PMS_P2;Temp;Humidity;BMP_temperature;BMP_pressure;BME280_temperature;BME280_humidity;BME280_pressure;Samples;Min_cycle;Max_cycle;Signal;HPM_P1;HPM_P2
2024/01/16 00:01:20;;;;;;;21.70;14.35;;;18.30;67.40;;;;;;5025027;28;20026;-65
2024/01/16 00:03:46;;;;;;;23.33;14.55;;;18.40;67.30;;;;;;5030320;28;20022;-66
2024/01/16 00:06:12;;;;;;;31.65;15.25;;;18.50;67.20;;;;;;5016763;28;20504;-66
2024/01/16 00:08:37;;;;;;;20.55;14.25;;;18.50;67.10;;;;;;5018996;28;20080;-66
2024/01/16 00:11:03;;;;;;;21.13;14.38;;;18.60;67.00;;;;;;5025499;28;20084;-65
2024/01/16 00:13:29;;;;;;;23.30;14.73;;;18.70;66.90;;;;;;5018046;28;20022;-65
2024/01/16 00:15:56;;;;;;;21.23;14.63;;;18.70;66.80;;;;;;5015920;28;20087;-64
2024/01/16 00:18:22;;;;;;;21.88;14.20;;;18.80;66.80;;;;;;5020596;28;20034;-66
2024/01/16 00:20:48;;;;;;;20.23;13.73;;;18.80;66.70;;;;;;5023093;28;20030;-64
2024/01/16 00:23:14;;;;;;;22.38;14.35;;;18.80;66.80;;;;;;5023095;28;20481;-65
2024/01/16 00:25:39;;;;;;;25.08;15.55;;;18.90;66.70;;;;;;5022756;28;20061;-65
2024/01/16 00:28:06;;;;;;;24.58;16.13;;;18.90;66.70;;;;;;5015526;28;20492;-65
2024/01/16 00:30:31;;;;;;;19.73;14.73;;;19.00;66.80;;;;;;5014681;28;20022;-65
2024/01/16 00:32:57;;;;;;;20.00;14.05;;;19.00;66.90;;;;;;5015654;28;20021;-65
2024/01/16 00:35:23;;;;;;;20.80;14.73;;;19.00;67.00;;;;;;5015474;28;20485;-65
2024/01/16 00:37:48;;;;;;;21.85;14.75;;;19.00;67.00;;;;;;5025672;28;20374;-67
2024/01/16 00:40:14;;;;;;;23.73;14.82;;;19.00;66.90;;;;;;5020374;28;20057;-65
2024/01/16 00:42:40;;;;;;;21.77;14.32;;;19.00;67.10;;;;;;5016437;28;20022;-65
2024/01/16 00:45:06;;;;;;;21.48;14.63;;;18.90;67.30;;;;;;5015882;28;20459;-66
2024/01/16 00:47:31;;;;;;;22.17;13.25;;;19.00;67.40;;;;;;5015530;28;20558;-66
2024/01/16 00:50:00;;;;;;;18.17;12.30;;;18.90;67.50;;;;;;5019430;28;20512;-66
2024/01/16 00:52:26;;;;;;;20.40;13.55;;;19.00;67.60;;;;;;5017381;28;20033;-66
2024/01/16 00:54:52;;;;;;;19.23;12.82;;;18.90;67.70;;;;;;5021392;28;20036;-65
2024/01/16 00:57:19;;;;;;;18.70;12.98;;;18.90;68.00;;;;;;5014921;28;20026;-67
2024/01/16 00:59:46;;;;;;;18.35;13.07;;;18.90;68.10;;;;;;5017391;28;20456;-65
2024/01/16 01:02:11;;;;;;;20.40;12.65;;;18.90;68.20;;;;;;5024589;28;20018;-66
2024/01/16 01:04:37;;;;;;;19.73;12.85;;;18.80;68.40;;;;;;5032927;28;20020;-66
2024/01/16 01:07:03;;;;;;;19.75;12.27;;;18.80;68.50;;;;;;5026671;28;20076;-67
2024/01/16 01:09:29;;;;;;;20.55;12.38;;;18.80;68.60;;;;;;5017077;28;20072;-66
2024/01/16 01:11:54;;;;;;;18.08;12.43;;;18.80;68.80;;;;;;5017717;28;20105;-66
2024/01/16 01:14:20;;;;;;;18.90;11.98;;;18.80;68.90;;;;;;5016642;28;20032;-66
2024/01/16 01:16:45;;;;;;;17.55;12.05;;;18.80;69.10;;;;;;5014871;28;20026;-67
2024/01/16 01:19:12;;;;;;;16.02;10.70;;;18.70;69.20;;;;;;5024493;28;20025;-66
2024/01/16 01:21:38;;;;;;;18.67;12.13;;;18.80;69.20;;;;;;5023025;28;20040;-66
2024/01/16 01:24:03;;;;;;;14.68;10.65;;;18.70;69.30;;;;;;5026817;28;20018;-66
2024/01/16 01:26:29;;;;;;;19.30;12.38;;;18.70;69.40;;;;;;5024094;28;20441;-66
2024/01/16 01:28:54;;;;;;;20.25;11.93;;;18.70;69.50;;;;;;5032265;28;20076;-66
2024/01/16 01:31:20;;;;;;;20.13;12.18;;;18.70;69.60;;;;;;5025757;28;20112;-66
2024/01/16 01:33:46;;;;;;;21.83;12.45;;;18.70;69.60;;;;;;5022486;28;20330;-65
2024/01/16 01:36:11;;;;;;;15.10;11.07;;;18.70;69.70;;;;;;5032012;28;20029;-66
2024/01/16 01:38:37;;;;;;;15.18;10.63;;;18.70;69.80;;;;;;5032168;28;20090;-65
2024/01/16 01:41:03;;;;;;;14.60;10.05;;;18.70;69.80;;;;;;5031429;28;20026;-65
2024/01/16 01:43:29;;;;;;;15.98;10.48;;;18.70;69.90;;;;;;5032130;28;20030;-66
2024/01/16 01:46:12;;;;;;;14.55;10.35;;;18.70;70.00;;;;;;5029140;28;20405;-65
2024/01/16 01:48:41;;;;;;;15.10;10.27;;;18.60;70.00;;;;;;5025576;28;20079;-65
2024/01/16 01:51:12;;;;;;;19.30;11.32;;;18.70;70.10;;;;;;5025389;28;20100;-66
2024/01/16 01:53:39;;;;;;;15.25;10.73;;;18.70;70.20;;;;;;5030383;28;20025;-66
2024/01/16 01:56:08;;;;;;;16.30;11.32;;;18.60;70.20;;;;;;5031689;28;20033;-65
2024/01/16 01:58:36;;;;;;;14.05;9.63;;;18.70;70.40;;;;;;5029734;28;20021;-66
2024/01/16 02:01:03;;;;;;;15.00;9.57;;;18.70;70.40;;;;;;5030903;28;20029;-65
2024/01/16 02:03:32;;;;;;;15.90;9.35;;;18.70;70.40;;;;;;5030391;28;20108;-66
2024/01/16 02:05:59;;;;;;;14.35;9.82;;;18.60;70.40;;;;;;5018340;28;20021;-66
2024/01/16 02:08:24;;;;;;;15.10;10.13;;;18.60;70.50;;;;;;5022614;28;20068;-65
2024/01/16 02:10:50;;;;;;;13.65;9.95;;;18.70;70.50;;;;;;5019377;28;20057;-66
2024/01/16 02:13:20;;;;;;;13.82;9.32;;;18.60;70.60;;;;;;5027425;28;20680;-65
2024/01/16 02:15:46;;;;;;;12.52;9.07;;;18.60;70.60;;;;;;5031118;28;20071;-65
2024/01/16 02:18:12;;;;;;;13.25;8.90;;;18.60;70.70;;;;;;5028084;28;20026;-67
2024/01/16 02:20:37;;;;;;;15.50;9.45;;;18.60;70.70;;;;;;5046288;28;20025;-65
2024/01/16 02:23:04;;;;;;;13.63;8.88;;;18.60;70.70;;;;;;5025353;28;20433;-67
2024/01/16 02:25:30;;;;;;;13.13;8.13;;;18.60;70.90;;;;;;5015916;28;20538;-66
2024/01/16 02:27:56;;;;;;;17.02;9.85;;;18.60;70.90;;;;;;5026222;28;20022;-67
2024/01/16 02:30:21;;;;;;;17.00;11.45;;;18.60;71.10;;;;;;5024454;28;20532;-68
2024/01/16 02:32:47;;;;;;;24.55;9.63;;;18.70;70.80;;;;;;5019642;28;20089;-65
2024/01/16 02:35:13;;;;;;;14.27;8.50;;;18.70;71.10;;;;;;5013480;28;20026;-65
2024/01/16 02:37:39;;;;;;;18.83;10.07;;;18.70;71.10;;;;;;5029795;28;20037;-65
2024/01/16 02:40:06;;;;;;;22.25;9.15;;;18.70;71.10;;;;;;5021992;28;20025;-66
2024/01/16 02:42:34;;;;;;;15.68;8.65;;;18.70;71.20;;;;;;5032907;28;20393;-65
2024/01/16 02:45:00;;;;;;;16.35;8.40;;;18.70;71.20;;;;;;5027164;28;20385;-65
2024/01/16 02:47:26;;;;;;;17.15;9.57;;;18.70;71.20;;;;;;5024736;28;20026;-65
2024/01/16 02:49:51;;;;;;;12.93;8.00;;;18.70;71.30;;;;;;5026196;28;20266;-65
2024/01/16 02:52:17;;;;;;;29.92;7.80;;;18.70;71.30;;;;;;5014499;28;20025;-65
2024/01/16 02:54:42;;;;;;;13.65;7.55;;;18.60;71.30;;;;;;5021832;28;20026;-65
2024/01/16 02:57:08;;;;;;;15.50;8.13;;;18.70;71.30;;;;;;5025769;28;20028;-65
2024/01/16 02:59:33;;;;;;;13.75;7.40;;;18.70;71.40;;;;;;5024578;28;20037;-65
2024/01/16 03:01:59;;;;;;;14.15;8.05;;;18.60;71.40;;;;;;5016821;28;20096;-64
2024/01/16 03:04:24;;;;;;;16.65;6.88;;;18.70;71.40;;;;;;5021296;28;20069;-66
2024/01/16 03:06:50;;;;;;;10.82;7.18;;;18.60;71.40;;;;;;5026717;28;20028;-66
2024/01/16 03:09:16;;;;;;;12.75;7.40;;;18.60;71.50;;;;;;5019434;28;20053;-64
2024/01/16 03:11:41;;;;;;;15.13;6.57;;;18.60;71.50;;;;;;5026184;28;20029;-65
2024/01/16 03:14:07;;;;;;;8.70;6.10;;;18.60;71.50;;;;;;5020922;28;20046;-64
2024/01/16 03:16:33;;;;;;;9.93;6.88;;;18.60;71.50;;;;;;5014755;28;20104;-67
2024/01/16 03:18:58;;;;;;;17.35;6.45;;;18.60;71.60;;;;;;5016022;28;20022;-65
2024/01/16 03:21:24;;;;;;;9.27;6.35;;;18.60;71.50;;;;;;5011992;28;20054;-66
2024/01/16 03:23:50;;;;;;;8.88;6.15;;;18.60;71.60;;;;;;5012481;28;20022;-65
2024/01/16 03:26:15;;;;;;;9.40;7.03;;;18.60;71.60;;;;;;5013948;28;20022;-65
2024/01/16 03:28:41;;;;;;;9.98;6.25;;;18.60;71.60;;;;;;5021481;28;20017;-64
2024/01/16 03:31:07;;;;;;;9.57;6.53;;;18.60;71.60;;;;;;5018198;28;20389;-66
2024/01/16 03:33:34;;;;;;;9.73;6.03;;;18.60;71.70;;;;;;5012673;28;20030;-65
2024/01/16 03:36:00;;;;;;;8.73;5.30;;;18.60;71.80;;;;;;5012512;28;20030;-65
2024/01/16 03:38:26;;;;;;;10.20;5.43;;;18.60;71.80;;;;;;5013288;28;20057;-65
2024/01/16 03:40:52;;;;;;;10.98;6.10;;;18.60;71.70;;;;;;5024398;28;20026;-65
2024/01/16 03:43:18;;;;;;;8.60;5.75;;;18.60;71.70;;;;;;5011208;28;20127;-68
2024/01/16 03:45:44;;;;;;;9.32;5.55;;;18.60;71.70;;;;;;5016532;28;20025;-66
2024/01/16 03:48:09;;;;;;;9.23;6.07;;;18.60;71.80;;;;;;5014546;28;20018;-67
2024/01/16 03:50:36;;;;;;;7.38;5.18;;;18.60;71.90;;;;;;5018289;28;20064;-64
2024/01/16 03:53:03;;;;;;;12.52;5.55;;;18.60;71.90;;;;;;5022731;28;20388;-66
2024/01/16 03:55:30;;;;;;;22.60;5.93;;;18.60;72.00;;;;;;5013864;28;20474;-64
2024/01/16 03:57:56;;;;;;;8.75;4.88;;;18.60;72.20;;;;;;5011009;28;20346;-65
2024/01/16 04:00:21;;;;;;;7.22;4.65;;;18.60;72.20;;;;;;5020949;28;20121;-65
2024/01/16 04:02:47;;;;;;;9.57;5.45;;;18.60;72.20;;;;;;5044181;28;20022;-65
2024/01/16 04:05:13;;;;;;;8.48;5.25;;;18.60;72.20;;;;;;5016242;28;20564;-65
2024/01/16 04:07:38;;;;;;;8.05;4.60;;;18.60;72.20;;;;;;5017308;28;20030;-63
2024/01/16 04:10:06;;;;;;;7.35;4.78;;;18.60;72.20;;;;;;5016370;28;20388;-65
2024/01/16 04:12:32;;;;;;;8.23;4.68;;;18.60;72.30;;;;;;5026191;28;20033;-63
2024/01/16 04:14:57;;;;;;;5.07;3.70;;;18.60;72.30;;;;;;5022814;28;20028;-64
2024/01/16 04:17:23;;;;;;;16.92;3.97;;;18.60;72.30;;;;;;5025396;28;20347;-63
2024/01/16 04:19:48;;;;;;;7.00;4.57;;;18.50;72.30;;;;;;5016215;28;20545;-65
2024/01/16 04:22:14;;;;;;;8.38;4.88;;;18.60;72.30;;;;;;5012144;28;20385;-66
2024/01/16 04:24:39;;;;;;;5.20;3.78;;;18.60;72.30;;;;;;5020239;28;20101;-64
2024/01/16 04:27:05;;;;;;;5.68;4.07;;;18.60;72.30;;;;;;5022469;28;20381;-64
2024/01/16 04:29:31;;;;;;;5.43;3.80;;;18.60;72.30;;;;;;5022389;28;20022;-64
2024/01/16 04:31:57;;;;;;;7.07;3.95;;;18.50;72.30;;;;;;5026539;28;20026;-65
2024/01/16 04:34:23;;;;;;;5.75;3.65;;;18.60;72.30;;;;;;5031800;28;20033;-65
2024/01/16 04:36:48;;;;;;;5.63;3.88;;;18.60;72.30;;;;;;5025946;28;20029;-64
2024/01/16 04:39:14;;;;;;;5.00;3.65;;;18.50;72.40;;;;;;5031788;28;20025;-63
2024/01/16 04:41:39;;;;;;;5.47;3.67;;;18.60;72.40;;;;;;5016526;28;20097;-64
2024/01/16 04:44:05;;;;;;;5.68;3.63;;;18.60;72.40;;;;;;5028271;28;20097;-64
2024/01/16 04:46:31;;;;;;;5.70;3.58;;;18.50;72.40;;;;;;5016348;28;20017;-65
2024/01/16 04:48:56;;;;;;;7.00;3.40;;;18.50;72.50;;;;;;5019940;28;20029;-64
2024/01/16 04:51:22;;;;;;;6.50;3.60;;;18.50;72.50;;;;;;5027484;28;20049;-64
2024/01/16 04:53:48;;;;;;;5.47;3.78;;;18.50;72.60;;;;;;5025471;28;20485;-63
2024/01/16 04:56:13;;;;;;;4.40;3.20;;;18.50;72.50;;;;;;5031409;28;20048;-64
2024/01/16 04:58:39;;;;;;;4.50;2.85;;;18.50;72.50;;;;;;5017305;28;20028;-64
2024/01/16 05:01:04;;;;;;;8.50;3.63;;;18.50;72.50;;;;;;5025393;28;20044;-64
2024/01/16 05:03:30;;;;;;;5.55;3.40;;;18.50;72.50;;;;;;5019925;28;20450;-64
2024/01/16 05:05:56;;;;;;;6.75;3.45;;;18.60;72.50;;;;;;5013741;28;20030;-66
2024/01/16 05:08:23;;;;;;;6.20;2.83;;;18.60;72.60;;;;;;5023940;28;20034;-66
2024/01/16 05:10:48;;;;;;;10.02;3.80;;;18.60;72.80;;;;;;5016393;28;20025;-65
2024/01/16 05:13:14;;;;;;;8.18;2.95;;;18.60;72.80;;;;;;5024368;28;20095;-65
2024/01/16 05:15:42;;;;;;;4.47;3.38;;;18.60;72.80;;;;;;5029650;28;20021;-66
2024/01/16 05:18:07;;;;;;;5.43;2.97;;;18.60;72.70;;;;;;5025944;28;20018;-64
2024/01/16 05:20:33;;;;;;;6.93;4.18;;;18.60;72.80;;;;;;5014407;28;20033;-64
2024/01/16 05:22:58;;;;;;;7.05;4.22;;;18.60;72.50;;;;;;5013499;28;20022;-64
2024/01/16 05:25:24;;;;;;;6.80;3.63;;;18.60;72.30;;;;;;5021475;28;20469;-65
2024/01/16 05:27:50;;;;;;;9.45;4.63;;;18.60;72.40;;;;;;5018914;28;20017;-65
2024/01/16 05:30:16;;;;;;;11.13;4.45;;;18.70;72.30;;;;;;5014146;28;20028;-65
2024/01/16 05:32:41;;;;;;;8.23;4.07;;;18.70;72.20;;;;;;5030764;28;20021;-64
2024/01/16 05:35:09;;;;;;;8.60;4.03;;;18.70;72.10;;;;;;5024576;28;20072;-64
2024/01/16 05:37:35;;;;;;;6.93;3.85;;;18.70;72.00;;;;;;5013119;28;20030;-66
2024/01/16 05:40:02;;;;;;;8.15;3.75;;;18.70;72.00;;;;;;5019769;28;20029;-65
2024/01/16 05:42:29;;;;;;;10.40;3.95;;;18.70;72.10;;;;;;5021302;28;20426;-66
2024/01/16 05:44:55;;;;;;;6.25;3.55;;;18.70;72.10;;;;;;5016439;28;20022;-66
2024/01/16 05:47:24;;;;;;;8.70;3.92;;;18.70;72.00;;;;;;5013034;28;20022;-66
2024/01/16 05:49:49;;;;;;;8.13;3.70;;;18.70;72.00;;;;;;5012081;28;20014;-65
2024/01/16 05:52:15;;;;;;;5.95;3.85;;;18.70;72.10;;;;;;5014144;28;20022;-66
2024/01/16 05:54:40;;;;;;;5.80;3.95;;;18.70;72.10;;;;;;5013673;28;20022;-68
2024/01/16 05:57:06;;;;;;;6.65;3.22;;;18.70;72.20;;;;;;5012895;28;20100;-66
2024/01/16 05:59:32;;;;;;;4.40;3.30;;;18.70;72.10;;;;;;5021093;28;20064;-66
2024/01/16 06:01:57;;;;;;;5.30;3.70;;;18.70;72.10;;;;;;5024867;28;20920;-66
2024/01/16 06:04:23;;;;;;;5.72;3.35;;;18.70;72.10;;;;;;5015939;28;20497;-68
2024/01/16 06:06:49;;;;;;;5.47;3.60;;;18.70;72.20;;;;;;5020776;28;20073;-66
2024/01/16 06:09:15;;;;;;;5.10;3.22;;;18.70;72.20;;;;;;5012351;28;20148;-66
2024/01/16 06:11:40;;;;;;;9.25;3.38;;;18.70;72.20;;;;;;5017041;28;20030;-66
2024/01/16 06:14:07;;;;;;;7.88;3.20;;;18.70;72.40;;;;;;5021989;28;20539;-69
2024/01/16 06:16:33;;;;;;;6.05;3.00;;;18.70;72.60;;;;;;5014628;28;20058;-65
2024/01/16 06:18:58;;;;;;;6.68;3.03;;;18.70;72.60;;;;;;5015390;28;20457;-65
2024/01/16 06:21:24;;;;;;;7.88;3.42;;;18.60;72.70;;;;;;5011372;28;20032;-62
2024/01/16 06:23:50;;;;;;;12.48;4.75;;;18.60;72.80;;;;;;5012088;28;20018;-65
2024/01/16 06:26:15;;;;;;;17.55;5.35;;;18.70;73.20;;;;;;5013502;28;20105;-66
2024/01/16 06:28:44;;;;;;;12.75;4.35;;;18.70;73.10;;;;;;5013266;28;20021;-63
2024/01/16 06:31:10;;;;;;;31.27;6.75;;;18.70;73.10;;;;;;5011710;28;20018;-65
2024/01/16 06:33:36;;;;;;;25.83;6.15;;;18.80;74.80;;;;;;5012362;28;20109;-64
2024/01/16 06:36:04;;;;;;;21.05;5.90;;;18.80;74.70;;;;;;5011980;28;20577;-64
2024/01/16 06:38:30;;;;;;;30.00;5.18;;;18.90;74.50;;;;;;5014225;28;20555;-62
2024/01/16 06:40:56;;;;;;;19.88;5.82;;;18.90;74.80;;;;;;5011682;28;20456;-65
2024/01/16 06:43:22;;;;;;;24.45;5.57;;;18.90;75.00;;;;;;5012200;28;20112;-67
2024/01/16 06:45:48;;;;;;;21.90;5.93;;;18.90;74.90;;;;;;5014115;28;20089;-65
2024/01/16 06:48:13;;;;;;;21.15;5.80;;;18.90;74.90;;;;;;5011312;28;20073;-64
2024/01/16 06:50:39;;;;;;;20.38;6.20;;;18.90;74.90;;;;;;5011797;28;20092;-64
2024/01/16 06:53:04;;;;;;;23.02;5.68;;;18.90;74.60;;;;;;5011857;28;20452;-65
2024/01/16 06:55:30;;;;;;;11.38;5.10;;;18.90;74.60;;;;;;5011732;28;20038;-65
2024/01/16 06:57:56;;;;;;;13.25;5.40;;;18.90;74.40;;;;;;5011575;28;20037;-64
2024/01/16 07:00:25;;;;;;;18.00;5.68;;;18.90;74.50;;;;;;5013192;28;20180;-65
2024/01/16 07:02:51;;;;;;;10.63;5.20;;;18.90;74.60;;;;;;5011680;28;20461;-64
2024/01/16 07:05:17;;;;;;;16.80;5.10;;;18.90;74.50;;;;;;5019664;28;20465;-65
2024/01/16 07:07:43;;;;;;;14.90;4.95;;;18.90;74.50;;;;;;5015532;28;20056;-64
2024/01/16 07:10:13;;;;;;;20.85;5.65;;;18.90;74.40;;;;;;5026868;28;20021;-67
2024/01/16 07:12:39;;;;;;;15.73;5.38;;;18.90;74.50;;;;;;5026384;28;20124;-67
2024/01/16 07:15:06;;;;;;;24.10;4.97;;;18.90;74.40;;;;;;5028889;28;20032;-66
2024/01/16 07:17:31;;;;;;;19.55;5.03;;;18.90;74.30;;;;;;5028857;28;20030;-64
2024/01/16 07:19:58;;;;;;;16.67;5.10;;;18.80;73.90;;;;;;5027564;28;20036;-67
2024/01/16 07:22:24;;;;;;;16.30;4.80;;;18.90;74.10;;;;;;5029578;28;20032;-65
2024/01/16 07:24:49;;;;;;;10.38;4.10;;;18.80;73.80;;;;;;5028979;28;20022;-67
2024/01/16 07:27:15;;;;;;;10.88;4.32;;;18.80;73.60;;;;;;5029529;28;20060;-67
2024/01/16 07:29:41;;;;;;;12.73;3.63;;;18.80;73.50;;;;;;5028869;28;20100;-66
2024/01/16 07:32:07;;;;;;;14.95;4.80;;;18.70;73.40;;;;;;5029455;28;20076;-68
2024/01/16 07:34:33;;;;;;;12.05;4.47;;;18.70;73.30;;;;;;5029442;28;20021;-66
2024/01/16 07:36:58;;;;;;;14.48;3.63;;;18.70;73.30;;;;;;5029289;28;20017;-66
2024/01/16 07:39:24;;;;;;;11.32;3.97;;;18.70;73.30;;;;;;5027774;28;20112;-66
2024/01/16 07:41:49;;;;;;;18.63;3.42;;;18.70;73.30;;;;;;5029225;28;20320;-66
2024/01/16 07:44:15;;;;;;;13.20;3.85;;;18.70;73.30;;;;;;5029838;28;20025;-66
2024/01/16 07:46:41;;;;;;;8.32;3.75;;;18.70;73.20;;;;;;5029731;28;20030;-66
2024/01/16 07:49:06;;;;;;;8.13;3.03;;;18.70;73.10;;;;;;5029650;28;20068;-67
2024/01/16 07:51:32;;;;;;;11.65;3.83;;;18.60;73.10;;;;;;5029444;28;20389;-67
2024/01/16 07:54:06;;;;;;;11.98;3.92;;;18.60;73.10;;;;;;5029872;28;20086;-66
2024/01/16 07:56:33;;;;;;;10.75;2.90;;;18.60;73.00;;;;;;5029727;28;20029;-67
2024/01/16 07:58:59;;;;;;;8.63;3.28;;;18.60;73.00;;;;;;5029820;28;20506;-66
2024/01/16 08:01:24;;;;;;;11.43;2.83;;;18.60;73.00;;;;;;5029062;28;20106;-66
2024/01/16 08:03:50;;;;;;;11.95;3.15;;;18.60;72.90;;;;;;5032508;28;20400;-67
2024/01/16 08:06:16;;;;;;;7.55;3.33;;;18.60;72.80;;;;;;5033803;28;20029;-67
2024/01/16 08:08:41;;;;;;;9.18;2.38;;;18.60;72.90;;;;;;5033548;28;20179;-66
2024/01/16 08:11:07;;;;;;;8.23;2.83;;;18.60;72.90;;;;;;5032935;28;20033;-66
2024/01/16 08:13:33;;;;;;;6.13;2.25;;;18.60;72.80;;;;;;5033722;28;20474;-67
2024/01/16 08:15:58;;;;;;;4.45;2.05;;;18.60;72.80;;;;;;5033381;28;20036;-66
2024/01/16 08:18:25;;;;;;;4.18;2.33;;;18.60;72.80;;;;;;5033197;28;20029;-67
2024/01/16 08:20:50;;;;;;;6.63;2.47;;;18.60;72.70;;;;;;5032642;28;20042;-67
2024/01/16 08:23:16;;;;;;;3.92;2.25;;;18.50;72.70;;;;;;5033060;28;20036;-66
2024/01/16 08:25:41;;;;;;;13.52;2.70;;;18.50;72.70;;;;;;5033327;28;20047;-66
2024/01/16 08:28:07;;;;;;;6.68;2.00;;;18.50;72.70;;;;;;5033027;28;20033;-67
2024/01/16 08:30:33;;;;;;;6.32;2.10;;;18.60;72.60;;;;;;5032301;28;20025;-66
2024/01/16 08:32:58;;;;;;;3.88;2.03;;;18.50;72.60;;;;;;5033113;28;20025;-67
2024/01/16 08:35:24;;;;;;;5.30;2.42;;;18.50;72.60;;;;;;5033123;28;20071;-66
2024/01/16 08:37:50;;;;;;;3.28;1.80;;;18.50;72.60;;;;;;5033112;28;20366;-67
2024/01/16 08:40:16;;;;;;;6.85;2.00;;;18.50;72.60;;;;;;5032348;28;20112;-66
2024/01/16 08:42:41;;;;;;;6.72;1.95;;;18.50;72.60;;;;;;5033071;28;20049;-66
2024/01/16 08:45:07;;;;;;;4.40;1.95;;;18.50;72.60;;;;;;5032868;28;20412;-67
2024/01/16 08:47:33;;;;;;;8.25;2.22;;;18.50;72.50;;;;;;5031362;28;20025;-66
2024/01/16 08:49:58;;;;;;;3.80;2.30;;;18.50;72.50;;;;;;5032188;28;20033;-66
2024/01/16 08:52:24;;;;;;;6.80;2.15;;;18.50;72.50;;;;;;5032897;28;20022;-66
2024/01/16 08:54:50;;;;;;;5.10;1.83;;;18.50;72.50;;;;;;5031326;28;20404;-66
2024/01/16 08:57:15;;;;;;;6.22;1.92;;;18.50;72.50;;;;;;5032767;28;20099;-66
2024/01/16 08:59:41;;;;;;;6.45;2.20;;;18.50;72.40;;;;;;5031981;28;20112;-65
2024/01/16 09:02:07;;;;;;;3.38;1.70;;;18.50;72.40;;;;;;5032534;28;20479;-65
2024/01/16 09:04:33;;;;;;;3.35;1.80;;;18.50;72.40;;;;;;5032519;28;20693;-66
2024/01/16 09:06:59;;;;;;;3.20;1.48;;;18.50;72.40;;;;;;5032665;28;20420;-67
2024/01/16 09:09:25;;;;;;;2.78;1.65;;;18.50;72.40;;;;;;5047565;22;20057;-65
2024/01/16 09:11:50;;;;;;;4.15;1.60;;;18.50;72.40;;;;;;5047957;28;20116;-66
2024/01/16 09:14:16;;;;;;;3.92;1.20;;;18.50;72.40;;;;;;5033449;28;20022;-65
2024/01/16 09:16:42;;;;;;;4.22;1.73;;;18.50;72.40;;;;;;5033565;28;20037;-65
2024/01/16 09:19:09;;;;;;;7.22;1.83;;;18.50;72.40;;;;;;5033181;28;20033;-66
2024/01/16 09:21:35;;;;;;;2.45;1.45;;;18.50;72.30;;;;;;5032876;28;20045;-69
2024/01/16 09:24:00;;;;;;;2.35;1.23;;;18.50;72.30;;;;;;5033687;28;20022;-69
2024/01/16 09:26:26;;;;;;;4.35;1.70;;;18.50;72.30;;;;;;5031882;28;20021;-69
2024/01/16 09:28:51;;;;;;;4.13;1.40;;;18.50;72.30;;;;;;5032988;28;20079;-67
2024/01/16 09:31:17;;;;;;;3.47;1.42;;;18.50;72.30;;;;;;5032509;28;20045;-68
2024/01/16 09:33:43;;;;;;;5.35;1.60;;;18.50;72.30;;;;;;5033067;28;20088;-69
2024/01/16 09:36:09;;;;;;;4.13;1.73;;;18.50;72.20;;;;;;5033063;28;20030;-69
2024/01/16 09:38:35;;;;;;;1.85;1.20;;;18.50;72.20;;;;;;5031626;28;20022;-68
2024/01/16 09:41:02;;;;;;;1.75;1.15;;;18.50;72.20;;;;;;5030693;28;20034;-69
2024/01/16 09:43:29;;;;;;;3.47;1.60;;;18.50;72.20;;;;;;5031602;28;20045;-68
2024/01/16 09:45:56;;;;;;;4.22;1.52;;;18.50;72.20;;;;;;5032984;28;20032;-68
2024/01/16 09:48:22;;;;;;;4.18;1.45;;;18.50;72.20;;;;;;5033291;28;20017;-68
2024/01/16 09:50:48;;;;;;;1.85;1.15;;;18.50;72.10;;;;;;5032476;28;20017;-68
2024/01/16 09:53:13;;;;;;;4.05;1.55;;;18.50;72.10;;;;;;5033324;28;20030;-68
2024/01/16 09:55:39;;;;;;;3.47;1.08;;;18.50;72.10;;;;;;5032940;28;20477;-68
2024/01/16 09:58:08;;;;;;;1.48;1.02;;;18.50;72.10;;;;;;5032767;28;20087;-68
2024/01/16 10:00:34;;;;;;;2.60;1.42;;;18.50;72.10;;;;;;5032041;28;20075;-68
2024/01/16 10:03:01;;;;;;;1.83;1.00;;;18.50;72.00;;;;;;5031365;28;20030;-68
2024/01/16 10:05:27;;;;;;;3.10;0.95;;;18.50;72.00;;;;;;5031993;28;20556;-69
2024/01/16 10:07:53;;;;;;;2.58;1.20;;;18.60;72.00;;;;;;5032949;28;20021;-68
2024/01/16 10:10:20;;;;;;;4.88;1.48;;;18.60;72.00;;;;;;5032368;28;20048;-68
2024/01/16 10:12:47;;;;;;;3.50;1.17;;;18.60;71.90;;;;;;5034445;28;20025;-66
2024/01/16 10:15:15;;;;;;;3.13;1.08;;;18.60;71.90;;;;;;5048010;28;20028;-68
2024/01/16 10:17:42;;;;;;;3.50;1.08;;;18.60;72.00;;;;;;5046210;28;20044;-68
2024/01/16 10:20:13;;;;;;;4.53;1.50;;;18.60;71.90;;;;;;5052610;28;20017;-69
2024/01/16 10:22:40;;;;;;;2.88;1.20;;;18.60;71.90;;;;;;5051894;28;20029;-69
2024/01/16 10:25:08;;;;;;;4.18;0.90;;;18.60;71.90;;;;;;5049808;28;20026;-68
2024/01/16 10:27:35;;;;;;;0.68;0.57;;;18.60;71.90;;;;;;5046408;28;20030;-68
2024/01/16 10:30:02;;;;;;;2.95;0.80;;;18.50;71.90;;;;;;5031553;28;20021;-66
2024/01/16 10:32:31;;;;;;;1.13;0.63;;;18.60;71.90;;;;;;5032212;28;20041;-66
2024/01/16 10:35:17;;;;;;;1.42;0.93;;;18.60;71.90;;;;;;5031862;28;20477;-66
2024/01/16 10:37:44;;;;;;;2.30;0.93;;;18.60;71.90;;;;;;5031945;28;20493;-66
2024/01/16 10:40:10;;;;;;;1.45;0.88;;;18.50;71.80;;;;;;5031012;28;20065;-66
2024/01/16 10:42:37;;;;;;;1.98;0.98;;;18.60;71.80;;;;;;5031631;28;20022;-67
2024/01/16 10:45:04;;;;;;;1.80;0.70;;;18.60;71.80;;;;;;5030444;28;20056;-66
2024/01/16 10:47:30;;;;;;;1.00;0.70;;;18.50;71.80;;;;;;5031949;28;20018;-67
2024/01/16 10:49:55;;;;;;;1.73;0.85;;;18.60;71.80;;;;;;5030804;28;20084;-66
2024/01/16 10:52:27;;;;;;;2.08;1.00;;;18.60;71.80;;;;;;5031396;28;20076;-67
2024/01/16 10:54:56;;;;;;;0.70;0.50;;;18.60;71.80;;;;;;5031621;28;20020;-67
2024/01/16 10:57:24;;;;;;;0.63;0.60;;;18.50;71.80;;;;;;5031416;28;20109;-67
2024/01/16 11:00:12;;;;;;;3.55;0.80;;;18.50;71.80;;;;;;5030703;28;20112;-66
2024/01/16 11:02:49;;;;;;;2.42;0.88;;;18.50;71.80;;;;;;5031326;28;20118;-67
2024/01/16 11:05:16;;;;;;;1.45;0.75;;;18.50;71.80;;;;;;5031272;28;20547;-67
2024/01/16 11:07:43;;;;;;;0.80;0.50;;;18.60;71.80;;;;;;5031209;28;20029;-66
2024/01/16 11:10:10;;;;;;;0.57;0.47;;;18.50;71.80;;;;;;5013215;28;20037;-67
2024/01/16 11:12:37;;;;;;;3.35;1.10;;;18.50;71.80;;;;;;5036146;28;20477;-68
2024/01/16 11:15:07;;;;;;;6.05;0.88;;;18.50;71.90;;;;;;5036888;28;20041;-67
2024/01/16 11:17:37;;;;;;;8.00;1.00;;;18.50;72.20;;;;;;5037752;28;20041;-67
2024/01/16 11:20:09;;;;;;;5.53;0.95;;;18.50;72.40;;;;;;5036764;28;20072;-66
2024/01/16 11:22:41;;;;;;;3.00;0.63;;;18.60;72.60;;;;;;5036242;28;20032;-66
2024/01/16 11:25:09;;;;;;;;;;;18.60;72.60;;;;;;5037599;28;20021;-67
2024/01/16 11:27:39;;;;;;;7.25;0.80;;;18.60;72.60;;;;;;5036222;28;19905;-67
2024/01/16 11:30:07;;;;;;;4.18;0.68;;;18.60;72.70;;;;;;5034480;28;20065;-68
2024/01/16 11:32:35;;;;;;;5.32;0.88;;;18.60;72.70;;;;;;5033005;28;20049;-68
2024/01/16 11:35:01;;;;;;;10.20;1.15;;;18.60;72.70;;;;;;5031179;28;20028;-68
2024/01/16 11:37:32;;;;;;;14.30;1.45;;;18.60;72.80;;;;;;5033921;28;20104;-68
2024/01/16 11:40:16;;;;;;;9.32;1.00;;;18.60;72.90;;;;;;5034574;28;20014;-68
2024/01/16 11:42:43;;;;;;;8.10;1.00;;;18.60;72.80;;;;;;5035410;28;20052;-68
2024/01/16 11:45:26;;;;;;;14.27;1.40;;;18.60;72.80;;;;;;5035655;28;20203;-68
2024/01/16 11:48:08;;;;;;;4.20;0.68;;;18.50;72.70;;;;;;5035466;28;20032;-68
2024/01/16 11:50:34;;;;;;;5.90;0.75;;;18.60;72.60;;;;;;5034651;28;20068;-68
2024/01/16 11:53:00;;;;;;;2.90;0.75;;;18.60;72.60;;;;;;5036335;28;20397;-67
2024/01/16 11:55:43;;;;;;;4.07;0.80;;;18.50;72.60;;;;;;5034707;28;20447;-69
2024/01/16 11:58:43;;;;;;;5.13;0.40;;;18.50;72.60;;;;;;5034886;28;20083;-68
2024/01/16 12:01:11;;;;;;;1.77;0.50;;;18.50;72.60;;;;;;5034117;28;20065;-68
2024/01/16 12:03:37;;;;;;;4.38;0.82;;;18.50;72.70;;;;;;5034866;28;20112;-67
2024/01/16 12:06:06;;;;;;;4.30;0.50;;;18.50;72.60;;;;;;5034800;28;20105;-68
2024/01/16 12:08:32;;;;;;;2.10;0.38;;;18.50;72.70;;;;;;5033414;28;20072;-68
2024/01/16 12:10:59;;;;;;;2.70;0.95;;;18.50;72.60;;;;;;5032720;28;20041;-68
2024/01/16 12:13:25;;;;;;;9.80;1.70;;;18.50;72.60;;;;;;5035212;28;20025;-67
2024/01/16 12:16:03;;;;;;;4.50;1.45;;;18.50;73.60;;;;;;5034433;28;20036;-67
2024/01/16 12:18:29;;;;;;;6.82;2.03;;;18.50;74.30;;;;;;5034408;28;20112;-67
2024/01/16 12:20:55;;;;;;;12.15;1.65;;;18.60;74.30;;;;;;5033582;28;20517;-67
2024/01/16 12:23:23;;;;;;;6.63;1.60;;;18.60;74.40;;;;;;5034414;28;20496;-67
2024/01/16 12:25:53;;;;;;;14.38;2.30;;;18.60;74.20;;;;;;5034242;28;20033;-67
2024/01/16 12:28:21;;;;;;;5.05;1.60;;;18.70;74.20;;;;;;5034379;28;20409;-67
2024/01/16 12:30:53;;;;;;;8.63;2.05;;;18.70;74.30;;;;;;5033343;28;20033;-67
2024/01/16 12:33:22;;;;;;;9.48;2.08;;;18.70;74.10;;;;;;5033425;28;20149;-67
2024/01/16 12:35:48;;;;;;;13.68;2.40;;;18.70;74.10;;;;;;5033916;28;20025;-67
2024/01/16 12:38:15;;;;;;;8.45;2.22;;;18.70;74.40;;;;;;5033924;28;20029;-67